Veuillez saisir l'adresse e-mail associée à votre compte d'utilisateur. Votre identifiant vous sera envoyé à cette adresse.

METAR TAF

[Source: ADDS]
METAR
LFCR 091100Z AUTO 30009KT CAVOK 07/M00 Q1018 NOSIG =
LFCR 090500Z 0906/1006 VRB02KT CAVOK BECMG 0908/0910 30005KT TEMPO 0913/0918 29010KT SCT035 BECMG 0921/0923 VRB02KT LFBA 091100Z AUTO 31008KT 280V360 9000 NSC 09/01 Q1022 NOSIG =
LFBA 090800Z 0909/0918 29007KT CAVOK LFSL 091100Z AUTO 31007KT 8000 NSC 08/M01 Q1020 NOSIG =
LFSL 090800Z 0909/0918 32007KT CAVOK LFLW 091030Z AUTO 29005KT 240V330 CAVOK 05/01 Q1018 NOSIG =
LFLW 090800Z 0909/0918 VRB02KT CAVOK BECMG 0912/0914 31012KT
TAF
LFCR 090500Z 0906/1006 VRB02KT CAVOK BECMG 0908/0910 30005KT TEMPO 0913/0918 29010KT SCT035 BECMG 0921/0923 VRB02KT =
LFBA 090800Z 0909/0918 29007KT CAVOK =
LFSL 090800Z 0909/0918 32007KT CAVOK =
LFLW 090800Z 0909/0918 VRB02KT CAVOK BECMG 0912/0914 31012KT =
SR / SS: 06:16 / 17:52 UTC (LFCC 2021-03-09)